Share

Mena, AR

2:26 AM CDT on April 24, 2014 (GMT -0500)
RAWS ODEN AR US (MODEA4) Elev 896 ft | 34.62 °N, 93.81 °W | Change Station

Current weather conditions updated 59 minutes ago

Clear
Clear
61 °F
Feels Like 61 °F
N
2
Wind Variable Wind from North
Gusts 7.0 mph
Sunrise 6:34 AM
Sunset 7:56 PM
Moon Waning Crescent

Today is forecast to be Much Cooler than yesterday. Afternoon showers and thunderstorms.

Pressure 29.82 in
Visibility 10.0 miles
Clouds Clear
Dew Point 47 °F
Humidity 61%
Rainfall 0.00 in
Snow Depth Not available.
UV 0 out of 16
Pollen 9.30 out of 12
Air Quality Not available.
Flu Activity Sporadic
METAR KMWT 240653Z AUTO 14004KT 10SM CLR 19/07 A2985 RMK AO2 SLP098 T01890072

More Conditions Fewer Conditions

Pressure 29.82 in
Visibility 10.0 miles
Clouds Clear
Dew Point 47 °F
Humidity 61%
Rainfall 0.00 in
Snow Depth Not available.
UV 0 out of 16
Pollen 9.30 out of 12
Air Quality Not available.
Flu Activity Sporadic
METAR KMWT 240653Z AUTO 14004KT 10SM CLR 19/07 A2985 RMK AO2 SLP098 T01890072

More Conditions Fewer Conditions

10-Day Weather Forecast

Almanac

Astronomy

Apr. 24, 2014 Rise Set
Actual Time 6:34 AM CDT 7:56 PM CDT
Civil Twilight 6:07 AM CDT 8:22 PM CDT
Nautical Twilight 5:36 AM CDT 8:54 PM CDT
Astronomical Twilight 5:03 AM CDT 9:27 PM CDT
Moon 3:33 AM CDT 3:24 PM CDT
Length of Visible Light 14h 14m
Length of Day
13h 21m
Tomorrow will be 1m 56s longer.
Waning Crescent, 28% of the Moon is Illuminated
Today
Waning Crescent
Apr 29
New
May 6
First Quarter
May 14
Full
May 21
Last Quarter

Today's Extremes

State Highs State Lows

Community

  • Stacked
    Stacked
  • clouds approaching Red Sox Nation
    clouds approaching Red Sox Nation
  • Balance
    Balance
  • Nestled In
    Nestled In
  • Stunning Sunrise
    Stunning Sunrise

WunderPhotos

Upload Photos

1,704,571 photos uploaded!

WunderBlogs® & News

Nearby

Snow Depth

Station Depth Elevation
No new snow has been reported.

Coastal Water Temperatures

Place Temperature
No Stations Reporting

Earthquake Activity

City Distance Mag. Time & Date
No recent earthquake activity has been reported nearby.
Minimum magnitude displayed is 2.5.

Nearby Weather Stations

Station Location Temp. Dew Point Humidity Wind Precip. Elev Updated Type
RAWS ODEN AR, Oden, AR 61 °F 47 °F 61% North  at  2 mph 0.00 in / hr 896 ft 1:27 AM CDT MADIS

Show More Stations Show Fewer Stations

What do you think?

We're not finished. Please let us know what you like, what you don't like, and what you are still missing.